sensor_id;sensor_type;location;lat;lon;timestamp;P1;durP1;ratioP1;P2;durP2;ratioP2
85102;SDS011;75452;44.106;3.074;2024-02-15T00:01:04;3.92;;;3.63;;
85102;SDS011;75452;44.106;3.074;2024-02-15T00:03:30;4.13;;;3.83;;
85102;SDS011;75452;44.106;3.074;2024-02-15T00:05:56;3.75;;;3.45;;
85102;SDS011;75452;44.106;3.074;2024-02-15T00:08:22;3.42;;;3.22;;
85102;SDS011;75452;44.106;3.074;2024-02-15T00:10:49;3.90;;;3.60;;
85102;SDS011;75452;44.106;3.074;2024-02-15T00:13:15;3.72;;;3.42;;
85102;SDS011;75452;44.106;3.074;2024-02-15T00:15:40;3.25;;;3.05;;
85102;SDS011;75452;44.106;3.074;2024-02-15T00:18:06;3.00;;;2.80;;
85102;SDS011;75452;44.106;3.074;2024-02-15T00:20:32;3.45;;;3.25;;
85102;SDS011;75452;44.106;3.074;2024-02-15T00:22:59;2.67;;;2.47;;
85102;SDS011;75452;44.106;3.074;2024-02-15T00:25:24;2.85;;;2.65;;
85102;SDS011;75452;44.106;3.074;2024-02-15T00:27:51;2.72;;;2.53;;
85102;SDS011;75452;44.106;3.074;2024-02-15T00:30:16;2.58;;;2.38;;
85102;SDS011;75452;44.106;3.074;2024-02-15T00:32:42;2.60;;;2.40;;
85102;SDS011;75452;44.106;3.074;2024-02-15T00:35:07;2.17;;;2.08;;
85102;SDS011;75452;44.106;3.074;2024-02-15T00:37:34;2.70;;;2.50;;
85102;SDS011;75452;44.106;3.074;2024-02-15T00:40:00;2.90;;;2.70;;
85102;SDS011;75452;44.106;3.074;2024-02-15T00:42:26;2.60;;;2.40;;
85102;SDS011;75452;44.106;3.074;2024-02-15T00:44:51;2.38;;;2.17;;
85102;SDS011;75452;44.106;3.074;2024-02-15T00:47:17;2.35;;;2.15;;
85102;SDS011;75452;44.106;3.074;2024-02-15T00:49:45;2.30;;;2.10;;
85102;SDS011;75452;44.106;3.074;2024-02-15T00:52:11;2.47;;;2.30;;
85102;SDS011;75452;44.106;3.074;2024-02-15T00:54:36;2.35;;;2.15;;
85102;SDS011;75452;44.106;3.074;2024-02-15T00:57:02;2.63;;;2.42;;
85102;SDS011;75452;44.106;3.074;2024-02-15T00:59:27;2.28;;;2.15;;
85102;SDS011;75452;44.106;3.074;2024-02-15T01:01:53;2.95;;;2.58;;
85102;SDS011;75452;44.106;3.074;2024-02-15T01:04:18;2.30;;;2.15;;
85102;SDS011;75452;44.106;3.074;2024-02-15T01:06:44;2.45;;;2.25;;
85102;SDS011;75452;44.106;3.074;2024-02-15T01:09:10;2.10;;;1.90;;
85102;SDS011;75452;44.106;3.074;2024-02-15T01:11:35;2.85;;;2.58;;
85102;SDS011;75452;44.106;3.074;2024-02-15T01:14:02;2.50;;;2.30;;
85102;SDS011;75452;44.106;3.074;2024-02-15T01:16:28;2.35;;;2.25;;
85102;SDS011;75452;44.106;3.074;2024-02-15T01:18:53;2.15;;;2.05;;
85102;SDS011;75452;44.106;3.074;2024-02-15T01:21:19;2.10;;;2.00;;
85102;SDS011;75452;44.106;3.074;2024-02-15T01:23:44;2.00;;;1.90;;
85102;SDS011;75452;44.106;3.074;2024-02-15T01:26:11;2.20;;;2.10;;
85102;SDS011;75452;44.106;3.074;2024-02-15T01:28:38;1.85;;;1.75;;
85102;SDS011;75452;44.106;3.074;2024-02-15T01:31:05;1.75;;;1.65;;
85102;SDS011;75452;44.106;3.074;2024-02-15T01:33:31;1.85;;;1.75;;
85102;SDS011;75452;44.106;3.074;2024-02-15T01:35:57;2.05;;;1.95;;
85102;SDS011;75452;44.106;3.074;2024-02-15T01:38:22;1.70;;;1.60;;
85102;SDS011;75452;44.106;3.074;2024-02-15T01:40:47;1.50;;;1.40;;
85102;SDS011;75452;44.106;3.074;2024-02-15T01:43:13;1.75;;;1.65;;
85102;SDS011;75452;44.106;3.074;2024-02-15T01:45:39;1.55;;;1.45;;
85102;SDS011;75452;44.106;3.074;2024-02-15T01:48:05;1.55;;;1.45;;
85102;SDS011;75452;44.106;3.074;2024-02-15T01:50:31;1.85;;;1.75;;
85102;SDS011;75452;44.106;3.074;2024-02-15T01:52:59;2.28;;;2.08;;
85102;SDS011;75452;44.106;3.074;2024-02-15T01:55:24;2.15;;;1.95;;
85102;SDS011;75452;44.106;3.074;2024-02-15T01:57:50;2.20;;;2.08;;
85102;SDS011;75452;44.106;3.074;2024-02-15T02:00:15;1.80;;;1.50;;
85102;SDS011;75452;44.106;3.074;2024-02-15T02:02:43;1.77;;;1.67;;
85102;SDS011;75452;44.106;3.074;2024-02-15T02:05:09;2.78;;;1.75;;
85102;SDS011;75452;44.106;3.074;2024-02-15T02:07:35;1.70;;;1.60;;
85102;SDS011;75452;44.106;3.074;2024-02-15T02:10:01;2.33;;;2.00;;
85102;SDS011;75452;44.106;3.074;2024-02-15T02:12:26;1.80;;;1.70;;
85102;SDS011;75452;44.106;3.074;2024-02-15T02:14:54;1.60;;;1.50;;
85102;SDS011;75452;44.106;3.074;2024-02-15T02:17:20;1.75;;;1.65;;
85102;SDS011;75452;44.106;3.074;2024-02-15T02:19:46;2.13;;;1.92;;
85102;SDS011;75452;44.106;3.074;2024-02-15T02:22:12;1.50;;;1.40;;
85102;SDS011;75452;44.106;3.074;2024-02-15T02:24:44;2.10;;;1.92;;
85102;SDS011;75452;44.106;3.074;2024-02-15T02:27:31;1.75;;;1.65;;
85102;SDS011;75452;44.106;3.074;2024-02-15T02:29:57;1.85;;;1.75;;
85102;SDS011;75452;44.106;3.074;2024-02-15T02:32:24;2.15;;;1.95;;
85102;SDS011;75452;44.106;3.074;2024-02-15T02:34:50;1.83;;;1.73;;
85102;SDS011;75452;44.106;3.074;2024-02-15T02:37:16;1.90;;;1.80;;
85102;SDS011;75452;44.106;3.074;2024-02-15T02:39:42;1.60;;;1.50;;
85102;SDS011;75452;44.106;3.074;2024-02-15T02:42:08;1.50;;;1.40;;
85102;SDS011;75452;44.106;3.074;2024-02-15T02:44:33;1.67;;;1.58;;
85102;SDS011;75452;44.106;3.074;2024-02-15T02:46:59;1.40;;;1.30;;
85102;SDS011;75452;44.106;3.074;2024-02-15T02:49:24;1.75;;;1.65;;
85102;SDS011;75452;44.106;3.074;2024-02-15T02:51:50;1.60;;;1.50;;
85102;SDS011;75452;44.106;3.074;2024-02-15T02:54:15;1.75;;;1.65;;
85102;SDS011;75452;44.106;3.074;2024-02-15T02:56:41;1.58;;;1.48;;
85102;SDS011;75452;44.106;3.074;2024-02-15T02:59:08;1.65;;;1.55;;
85102;SDS011;75452;44.106;3.074;2024-02-15T03:01:34;1.67;;;1.42;;
85102;SDS011;75452;44.106;3.074;2024-02-15T03:03:59;1.80;;;1.70;;
85102;SDS011;75452;44.106;3.074;2024-02-15T03:06:25;2.03;;;1.52;;
85102;SDS011;75452;44.106;3.074;2024-02-15T03:08:50;1.85;;;1.60;;
85102;SDS011;75452;44.106;3.074;2024-02-15T03:11:23;1.85;;;1.75;;
85102;SDS011;75452;44.106;3.074;2024-02-15T03:13:49;1.77;;;1.67;;
85102;SDS011;75452;44.106;3.074;2024-02-15T03:16:14;1.67;;;1.58;;
85102;SDS011;75452;44.106;3.074;2024-02-15T03:18:41;1.50;;;1.40;;
85102;SDS011;75452;44.106;3.074;2024-02-15T03:21:08;1.70;;;1.60;;
85102;SDS011;75452;44.106;3.074;2024-02-15T03:23:35;2.35;;;1.73;;
85102;SDS011;75452;44.106;3.074;2024-02-15T03:26:02;1.92;;;1.83;;
85102;SDS011;75452;44.106;3.074;2024-02-15T03:28:29;1.52;;;1.42;;
85102;SDS011;75452;44.106;3.074;2024-02-15T03:30:54;1.63;;;1.52;;
85102;SDS011;75452;44.106;3.074;2024-02-15T03:33:20;1.58;;;1.42;;
85102;SDS011;75452;44.106;3.074;2024-02-15T03:35:51;1.40;;;1.30;;
85102;SDS011;75452;44.106;3.074;2024-02-15T03:38:17;1.60;;;1.50;;
85102;SDS011;75452;44.106;3.074;2024-02-15T03:40:42;1.13;;;1.00;;
85102;SDS011;75452;44.106;3.074;2024-02-15T03:43:08;1.50;;;1.40;;
85102;SDS011;75452;44.106;3.074;2024-02-15T03:45:34;1.50;;;1.40;;
85102;SDS011;75452;44.106;3.074;2024-02-15T03:47:59;1.40;;;1.30;;
85102;SDS011;75452;44.106;3.074;2024-02-15T03:50:25;1.60;;;1.50;;
85102;SDS011;75452;44.106;3.074;2024-02-15T03:52:50;1.10;;;1.10;;
85102;SDS011;75452;44.106;3.074;2024-02-15T03:55:16;1.48;;;1.20;;
85102;SDS011;75452;44.106;3.074;2024-02-15T03:57:41;1.33;;;1.15;;
85102;SDS011;75452;44.106;3.074;2024-02-15T04:00:09;1.40;;;1.30;;
85102;SDS011;75452;44.106;3.074;2024-02-15T04:02:36;1.30;;;1.20;;
85102;SDS011;75452;44.106;3.074;2024-02-15T04:05:02;1.50;;;1.40;;
85102;SDS011;75452;44.106;3.074;2024-02-15T04:07:30;1.23;;;1.13;;
85102;SDS011;75452;44.106;3.074;2024-02-15T04:09:56;1.38;;;1.27;;
85102;SDS011;75452;44.106;3.074;2024-02-15T04:12:21;2.08;;;1.02;;
85102;SDS011;75452;44.106;3.074;2024-02-15T04:14:47;1.10;;;1.00;;
85102;SDS011;75452;44.106;3.074;2024-02-15T04:17:12;1.13;;;1.02;;
85102;SDS011;75452;44.106;3.074;2024-02-15T04:19:43;1.05;;;1.05;;
85102;SDS011;75452;44.106;3.074;2024-02-15T04:22:09;1.45;;;1.30;;
85102;SDS011;75452;44.106;3.074;2024-02-15T04:24:35;1.65;;;1.52;;
85102;SDS011;75452;44.106;3.074;2024-02-15T04:27:05;1.02;;;1.02;;
85102;SDS011;75452;44.106;3.074;2024-02-15T04:29:33;1.27;;;1.20;;
85102;SDS011;75452;44.106;3.074;2024-02-15T04:31:59;1.42;;;1.33;;
85102;SDS011;75452;44.106;3.074;2024-02-15T04:34:24;1.33;;;1.23;;
85102;SDS011;75452;44.106;3.074;2024-02-15T04:36:51;1.60;;;1.50;;
85102;SDS011;75452;44.106;3.074;2024-02-15T04:39:20;1.08;;;1.08;;
85102;SDS011;75452;44.106;3.074;2024-02-15T04:41:52;1.00;;;1.00;;
85102;SDS011;75452;44.106;3.074;2024-02-15T04:44:18;1.13;;;1.05;;
85102;SDS011;75452;44.106;3.074;2024-02-15T04:46:47;1.20;;;1.10;;
85102;SDS011;75452;44.106;3.074;2024-02-15T04:49:14;1.50;;;1.40;;
85102;SDS011;75452;44.106;3.074;2024-02-15T04:51:40;1.40;;;1.30;;
85102;SDS011;75452;44.106;3.074;2024-02-15T04:54:09;1.25;;;1.15;;
85102;SDS011;75452;44.106;3.074;2024-02-15T04:56:38;1.27;;;1.17;;
85102;SDS011;75452;44.106;3.074;2024-02-15T04:59:04;2.05;;;1.33;;
85102;SDS011;75452;44.106;3.074;2024-02-15T05:01:33;1.17;;;1.08;;
85102;SDS011;75452;44.106;3.074;2024-02-15T05:03:59;1.10;;;1.10;;
85102;SDS011;75452;44.106;3.074;2024-02-15T05:06:25;1.05;;;1.00;;
85102;SDS011;75452;44.106;3.074;2024-02-15T05:08:54;1.10;;;0.88;;
85102;SDS011;75452;44.106;3.074;2024-02-15T05:11:21;1.10;;;1.00;;
85102;SDS011;75452;44.106;3.074;2024-02-15T05:13:47;1.33;;;1.23;;
85102;SDS011;75452;44.106;3.074;2024-02-15T05:16:15;1.20;;;1.10;;
85102;SDS011;75452;44.106;3.074;2024-02-15T05:18:41;0.90;;;0.90;;
85102;SDS011;75452;44.106;3.074;2024-02-15T05:21:06;1.50;;;1.40;;
85102;SDS011;75452;44.106;3.074;2024-02-15T05:23:35;1.52;;;1.05;;
85102;SDS011;75452;44.106;3.074;2024-02-15T05:26:05;1.50;;;1.40;;
85102;SDS011;75452;44.106;3.074;2024-02-15T05:28:31;1.08;;;0.98;;
85102;SDS011;75452;44.106;3.074;2024-02-15T05:31:10;1.27;;;1.17;;
85102;SDS011;75452;44.106;3.074;2024-02-15T05:33:37;1.20;;;1.17;;
85102;SDS011;75452;44.106;3.074;2024-02-15T05:36:10;1.25;;;1.15;;
85102;SDS011;75452;44.106;3.074;2024-02-15T05:38:38;1.00;;;1.00;;
85102;SDS011;75452;44.106;3.074;2024-02-15T05:41:04;1.30;;;1.25;;
85102;SDS011;75452;44.106;3.074;2024-02-15T05:43:29;1.45;;;1.10;;
85102;SDS011;75452;44.106;3.074;2024-02-15T05:45:55;1.00;;;1.00;;
85102;SDS011;75452;44.106;3.074;2024-02-15T05:48:23;1.50;;;1.40;;
85102;SDS011;75452;44.106;3.074;2024-02-15T05:50:48;1.17;;;1.17;;
85102;SDS011;75452;44.106;3.074;2024-02-15T05:53:13;1.08;;;1.00;;
85102;SDS011;75452;44.106;3.074;2024-02-15T05:55:39;1.23;;;1.13;;
85102;SDS011;75452;44.106;3.074;2024-02-15T05:58:09;1.50;;;1.40;;
85102;SDS011;75452;44.106;3.074;2024-02-15T06:00:35;1.30;;;1.20;;
85102;SDS011;75452;44.106;3.074;2024-02-15T06:03:03;1.17;;;1.08;;
85102;SDS011;75452;44.106;3.074;2024-02-15T06:05:31;1.13;;;1.02;;
85102;SDS011;75452;44.106;3.074;2024-02-15T06:07:57;0.88;;;0.88;;
85102;SDS011;75452;44.106;3.074;2024-02-15T06:10:23;0.73;;;0.73;;
85102;SDS011;75452;44.106;3.074;2024-02-15T06:12:48;1.10;;;1.10;;
85102;SDS011;75452;44.106;3.074;2024-02-15T06:15:14;1.33;;;1.23;;
85102;SDS011;75452;44.106;3.074;2024-02-15T06:17:42;0.90;;;0.90;;
85102;SDS011;75452;44.106;3.074;2024-02-15T06:20:10;0.93;;;0.93;;
85102;SDS011;75452;44.106;3.074;2024-02-15T06:22:43;0.90;;;0.90;;
85102;SDS011;75452;44.106;3.074;2024-02-15T06:25:09;0.90;;;0.90;;
85102;SDS011;75452;44.106;3.074;2024-02-15T06:27:36;1.05;;;0.98;;
85102;SDS011;75452;44.106;3.074;2024-02-15T06:30:05;1.08;;;1.08;;
85102;SDS011;75452;44.106;3.074;2024-02-15T06:32:53;1.02;;;1.02;;
85102;SDS011;75452;44.106;3.074;2024-02-15T06:35:37;1.40;;;1.30;;
85102;SDS011;75452;44.106;3.074;2024-02-15T06:38:22;1.65;;;1.20;;
85102;SDS011;75452;44.106;3.074;2024-02-15T06:41:07;1.23;;;1.13;;
85102;SDS011;75452;44.106;3.074;2024-02-15T06:43:32;1.25;;;1.15;;
85102;SDS011;75452;44.106;3.074;2024-02-15T06:45:59;1.17;;;1.08;;
85102;SDS011;75452;44.106;3.074;2024-02-15T06:48:25;1.13;;;1.13;;
85102;SDS011;75452;44.106;3.074;2024-02-15T06:50:51;1.40;;;1.30;;
85102;SDS011;75452;44.106;3.074;2024-02-15T06:53:16;1.35;;;1.25;;
85102;SDS011;75452;44.106;3.074;2024-02-15T06:55:42;1.10;;;1.10;;
85102;SDS011;75452;44.106;3.074;2024-02-15T06:58:08;1.40;;;1.30;;
85102;SDS011;75452;44.106;3.074;2024-02-15T07:00:33;1.30;;;1.20;;
85102;SDS011;75452;44.106;3.074;2024-02-15T07:02:58;1.33;;;1.23;;
85102;SDS011;75452;44.106;3.074;2024-02-15T07:05:24;1.40;;;1.30;;
85102;SDS011;75452;44.106;3.074;2024-02-15T07:07:53;1.45;;;1.35;;
85102;SDS011;75452;44.106;3.074;2024-02-15T07:10:20;1.20;;;1.10;;
85102;SDS011;75452;44.106;3.074;2024-02-15T07:12:46;0.82;;;0.82;;
85102;SDS011;75452;44.106;3.074;2024-02-15T07:15:11;1.48;;;1.38;;
85102;SDS011;75452;44.106;3.074;2024-02-15T07:17:37;1.10;;;1.10;;
85102;SDS011;75452;44.106;3.074;2024-02-15T07:20:03;1.25;;;1.15;;
85102;SDS011;75452;44.106;3.074;2024-02-15T07:22:31;1.13;;;1.05;;
85102;SDS011;75452;44.106;3.074;2024-02-15T07:24:57;1.23;;;1.20;;
85102;SDS011;75452;44.106;3.074;2024-02-15T07:27:22;1.10;;;1.00;;
85102;SDS011;75452;44.106;3.074;2024-02-15T07:29:50;1.15;;;1.05;;
85102;SDS011;75452;44.106;3.074;2024-02-15T07:32:16;1.20;;;1.10;;
85102;SDS011;75452;44.106;3.074;2024-02-15T07:34:42;1.80;;;1.20;;
85102;SDS011;75452;44.106;3.074;2024-02-15T07:37:09;1.20;;;1.10;;
85102;SDS011;75452;44.106;3.074;2024-02-15T07:39:34;1.30;;;1.20;;
85102;SDS011;75452;44.106;3.074;2024-02-15T07:42:01;1.15;;;1.10;;
85102;SDS011;75452;44.106;3.074;2024-02-15T07:44:29;1.05;;;0.95;;
85102;SDS011;75452;44.106;3.074;2024-02-15T07:46:57;1.40;;;1.30;;
85102;SDS011;75452;44.106;3.074;2024-02-15T07:49:25;0.90;;;0.90;;
85102;SDS011;75452;44.106;3.074;2024-02-15T07:51:51;1.27;;;1.20;;
85102;SDS011;75452;44.106;3.074;2024-02-15T07:54:19;1.10;;;1.05;;
85102;SDS011;75452;44.106;3.074;2024-02-15T07:56:48;0.80;;;0.80;;
85102;SDS011;75452;44.106;3.074;2024-02-15T07:59:14;1.35;;;1.10;;
85102;SDS011;75452;44.106;3.074;2024-02-15T08:01:41;1.52;;;1.10;;
85102;SDS011;75452;44.106;3.074;2024-02-15T08:04:07;1.20;;;1.10;;
85102;SDS011;75452;44.106;3.074;2024-02-15T08:06:33;0.93;;;0.93;;
85102;SDS011;75452;44.106;3.074;2024-02-15T08:08:58;0.95;;;0.95;;
85102;SDS011;75452;44.106;3.074;2024-02-15T08:11:24;1.20;;;1.10;;
85102;SDS011;75452;44.106;3.074;2024-02-15T08:13:51;1.30;;;1.20;;
85102;SDS011;75452;44.106;3.074;2024-02-15T08:16:22;1.60;;;1.10;;
85102;SDS011;75452;44.106;3.074;2024-02-15T08:18:48;4.28;;;1.23;;
85102;SDS011;75452;44.106;3.074;2024-02-15T08:21:17;1.30;;;1.20;;
85102;SDS011;75452;44.106;3.074;2024-02-15T08:23:42;1.23;;;1.00;;
85102;SDS011;75452;44.106;3.074;2024-02-15T08:26:08;1.80;;;1.20;;
85102;SDS011;75452;44.106;3.074;2024-02-15T08:28:36;1.50;;;1.10;;
85102;SDS011;75452;44.106;3.074;2024-02-15T08:31:01;1.38;;;1.27;;
85102;SDS011;75452;44.106;3.074;2024-02-15T08:33:28;2.05;;;1.40;;
85102;SDS011;75452;44.106;3.074;2024-02-15T08:35:55;3.80;;;1.30;;
85102;SDS011;75452;44.106;3.074;2024-02-15T08:38:21;1.10;;;0.95;;
85102;SDS011;75452;44.106;3.074;2024-02-15T08:40:47;1.55;;;0.68;;
85102;SDS011;75452;44.106;3.074;2024-02-15T08:43:13;1.20;;;0.98;;
85102;SDS011;75452;44.106;3.074;2024-02-15T08:45:40;3.15;;;1.35;;
85102;SDS011;75452;44.106;3.074;2024-02-15T08:48:06;1.10;;;1.00;;
85102;SDS011;75452;44.106;3.074;2024-02-15T08:50:32;2.30;;;1.25;;
85102;SDS011;75452;44.106;3.074;2024-02-15T08:52:57;6.95;;;1.42;;
85102;SDS011;75452;44.106;3.074;2024-02-15T08:55:22;4.90;;;1.35;;
85102;SDS011;75452;44.106;3.074;2024-02-15T08:57:52;12.40;;;1.30;;
85102;SDS011;75452;44.106;3.074;2024-02-15T09:00:23;2.72;;;1.40;;
85102;SDS011;75452;44.106;3.074;2024-02-15T09:02:49;2.92;;;1.00;;
85102;SDS011;75452;44.106;3.074;2024-02-15T09:05:15;1.83;;;1.05;;
85102;SDS011;75452;44.106;3.074;2024-02-15T09:07:44;0.95;;;0.93;;
85102;SDS011;75452;44.106;3.074;2024-02-15T09:10:13;3.28;;;1.20;;
85102;SDS011;75452;44.106;3.074;2024-02-15T09:12:39;1.58;;;1.33;;
85102;SDS011;75452;44.106;3.074;2024-02-15T09:15:08;2.63;;;1.20;;
85102;SDS011;75452;44.106;3.074;2024-02-15T09:17:35;2.15;;;0.82;;
85102;SDS011;75452;44.106;3.074;2024-02-15T09:20:13;1.30;;;1.00;;
85102;SDS011;75452;44.106;3.074;2024-02-15T09:25:11;1.58;;;0.77;;
85102;SDS011;75452;44.106;3.074;2024-02-15T09:27:38;3.85;;;1.23;;
85102;SDS011;75452;44.106;3.074;2024-02-15T09:30:07;1.50;;;0.95;;
85102;SDS011;75452;44.106;3.074;2024-02-15T09:32:34;1.85;;;1.05;;
85102;SDS011;75452;44.106;3.074;2024-02-15T09:35:02;1.02;;;0.98;;
85102;SDS011;75452;44.106;3.074;2024-02-15T09:37:32;3.08;;;1.10;;
85102;SDS011;75452;44.106;3.074;2024-02-15T09:39:58;1.10;;;0.93;;
85102;SDS011;75452;44.106;3.074;2024-02-15T09:42:28;1.77;;;1.67;;
85102;SDS011;75452;44.106;3.074;2024-02-15T09:44:54;2.30;;;0.88;;
85102;SDS011;75452;44.106;3.074;2024-02-15T09:47:19;1.55;;;1.05;;
85102;SDS011;75452;44.106;3.074;2024-02-15T09:49:45;0.90;;;0.90;;
85102;SDS011;75452;44.106;3.074;2024-02-15T09:52:11;7.97;;;1.60;;
85102;SDS011;75452;44.106;3.074;2024-02-15T09:54:36;2.40;;;1.52;;
85102;SDS011;75452;44.106;3.074;2024-02-15T09:57:04;3.15;;;1.67;;
85102;SDS011;75452;44.106;3.074;2024-02-15T09:59:30;2.90;;;1.70;;
85102;SDS011;75452;44.106;3.074;2024-02-15T10:01:58;2.75;;;1.50;;
85102;SDS011;75452;44.106;3.074;2024-02-15T10:04:24;3.95;;;1.25;;
85102;SDS011;75452;44.106;3.074;2024-02-15T10:06:50;6.95;;;1.20;;
85102;SDS011;75452;44.106;3.074;2024-02-15T10:09:29;2.38;;;1.42;;
85102;SDS011;75452;44.106;3.074;2024-02-15T10:12:00;1.67;;;1.10;;
85102;SDS011;75452;44.106;3.074;2024-02-15T10:14:26;1.00;;;1.00;;
85102;SDS011;75452;44.106;3.074;2024-02-15T10:16:53;3.15;;;1.20;;
85102;SDS011;75452;44.106;3.074;2024-02-15T10:19:19;1.20;;;1.10;;
85102;SDS011;75452;44.106;3.074;2024-02-15T10:21:50;1.45;;;1.00;;
85102;SDS011;75452;44.106;3.074;2024-02-15T10:24:17;4.13;;;2.25;;
85102;SDS011;75452;44.106;3.074;2024-02-15T10:26:44;2.10;;;1.90;;
85102;SDS011;75452;44.106;3.074;2024-02-15T10:29:13;1.70;;;1.60;;
85102;SDS011;75452;44.106;3.074;2024-02-15T10:31:40;4.07;;;2.40;;
85102;SDS011;75452;44.106;3.074;2024-02-15T10:34:26;4.55;;;2.08;;
85102;SDS011;75452;44.106;3.074;2024-02-15T10:37:16;5.53;;;1.58;;
85102;SDS011;75452;44.106;3.074;2024-02-15T10:39:41;1.48;;;1.35;;
85102;SDS011;75452;44.106;3.074;2024-02-15T10:42:07;3.10;;;2.00;;
85102;SDS011;75452;44.106;3.074;2024-02-15T10:44:35;3.53;;;1.20;;
85102;SDS011;75452;44.106;3.074;2024-02-15T10:47:03;2.03;;;1.15;;
85102;SDS011;75452;44.106;3.074;2024-02-15T10:49:32;2.67;;;1.35;;
85102;SDS011;75452;44.106;3.074;2024-02-15T10:51:58;2.80;;;1.42;;
85102;SDS011;75452;44.106;3.074;2024-02-15T10:57:22;2.05;;;1.38;;
85102;SDS011;75452;44.106;3.074;2024-02-15T10:59:57;2.60;;;1.40;;
85102;SDS011;75452;44.106;3.074;2024-02-15T11:02:29;4.05;;;1.35;;
85102;SDS011;75452;44.106;3.074;2024-02-15T11:05:01;0.85;;;0.85;;
85102;SDS011;75452;44.106;3.074;2024-02-15T11:07:29;2.65;;;1.10;;
85102;SDS011;75452;44.106;3.074;2024-02-15T11:09:56;2.35;;;1.13;;
85102;SDS011;75452;44.106;3.074;2024-02-15T11:12:22;2.75;;;1.20;;
85102;SDS011;75452;44.106;3.074;2024-02-15T11:14:48;3.15;;;1.08;;
85102;SDS011;75452;44.106;3.074;2024-02-15T11:22:57;1.58;;;1.17;;
85102;SDS011;75452;44.106;3.074;2024-02-15T11:30:47;1.88;;;1.00;;
85102;SDS011;75452;44.106;3.074;2024-02-15T11:33:29;1.83;;;1.17;;
85102;SDS011;75452;44.106;3.074;2024-02-15T11:36:10;3.20;;;1.15;;
85102;SDS011;75452;44.106;3.074;2024-02-15T11:38:39;1.98;;;1.33;;
85102;SDS011;75452;44.106;3.074;2024-02-15T11:41:11;1.30;;;1.20;;
85102;SDS011;75452;44.106;3.074;2024-02-15T11:46:08;1.92;;;1.42;;
85102;SDS011;75452;44.106;3.074;2024-02-15T11:48:35;1.13;;;1.02;;
85102;SDS011;75452;44.106;3.074;2024-02-15T11:51:04;2.17;;;1.52;;
85102;SDS011;75452;44.106;3.074;2024-02-15T11:53:31;1.83;;;1.10;;
85102;SDS011;75452;44.106;3.074;2024-02-15T11:55:59;3.42;;;1.33;;
85102;SDS011;75452;44.106;3.074;2024-02-15T11:58:25;1.20;;;1.10;;
85102;SDS011;75452;44.106;3.074;2024-02-15T12:01:00;1.92;;;1.33;;
85102;SDS011;75452;44.106;3.074;2024-02-15T12:03:43;1.60;;;1.10;;
85102;SDS011;75452;44.106;3.074;2024-02-15T12:06:27;2.10;;;1.02;;
85102;SDS011;75452;44.106;3.074;2024-02-15T12:09:11;1.87;;;1.40;;
85102;SDS011;75452;44.106;3.074;2024-02-15T12:11:58;1.83;;;1.43;;
85102;SDS011;75452;44.106;3.074;2024-02-15T12:14:42;1.25;;;1.15;;
85102;SDS011;75452;44.106;3.074;2024-02-15T12:17:26;2.17;;;1.52;;
85102;SDS011;75452;44.106;3.074;2024-02-15T12:20:10;1.35;;;1.10;;
85102;SDS011;75452;44.106;3.074;2024-02-15T12:22:39;1.83;;;1.70;;
85102;SDS011;75452;44.106;3.074;2024-02-15T12:25:13;2.35;;;1.42;;
85102;SDS011;75452;44.106;3.074;2024-02-15T12:27:40;2.30;;;1.90;;
85102;SDS011;75452;44.106;3.074;2024-02-15T12:30:06;2.47;;;1.13;;
85102;SDS011;75452;44.106;3.074;2024-02-15T12:32:33;1.55;;;1.35;;
85102;SDS011;75452;44.106;3.074;2024-02-15T12:35:15;1.30;;;1.20;;
85102;SDS011;75452;44.106;3.074;2024-02-15T12:37:48;1.73;;;1.63;;
85102;SDS011;75452;44.106;3.074;2024-02-15T12:40:19;1.27;;;1.17;;
85102;SDS011;75452;44.106;3.074;2024-02-15T12:42:45;2.67;;;1.20;;
85102;SDS011;75452;44.106;3.074;2024-02-15T12:45:15;1.50;;;1.40;;
85102;SDS011;75452;44.106;3.074;2024-02-15T12:47:46;1.25;;;1.15;;
85102;SDS011;75452;44.106;3.074;2024-02-15T12:50:18;2.38;;;1.25;;
85102;SDS011;75452;44.106;3.074;2024-02-15T12:52:45;1.50;;;1.40;;
85102;SDS011;75452;44.106;3.074;2024-02-15T12:57:42;3.60;;;1.42;;
85102;SDS011;75452;44.106;3.074;2024-02-15T13:00:11;1.40;;;1.30;;
85102;SDS011;75452;44.106;3.074;2024-02-15T13:02:42;1.33;;;1.23;;
85102;SDS011;75452;44.106;3.074;2024-02-15T13:05:09;2.53;;;1.48;;
85102;SDS011;75452;44.106;3.074;2024-02-15T13:07:35;1.73;;;1.63;;
85102;SDS011;75452;44.106;3.074;2024-02-15T13:10:01;1.55;;;1.45;;
85102;SDS011;75452;44.106;3.074;2024-02-15T13:12:26;3.42;;;1.70;;
85102;SDS011;75452;44.106;3.074;2024-02-15T13:14:53;1.85;;;1.75;;
85102;SDS011;75452;44.106;3.074;2024-02-15T13:17:19;1.65;;;1.55;;
85102;SDS011;75452;44.106;3.074;2024-02-15T13:19:45;4.30;;;1.60;;
85102;SDS011;75452;44.106;3.074;2024-02-15T13:22:14;1.60;;;1.50;;
85102;SDS011;75452;44.106;3.074;2024-02-15T13:24:40;2.05;;;1.55;;
85102;SDS011;75452;44.106;3.074;2024-02-15T13:27:07;1.38;;;1.27;;
85102;SDS011;75452;44.106;3.074;2024-02-15T13:29:35;1.63;;;1.52;;
85102;SDS011;75452;44.106;3.074;2024-02-15T13:32:00;1.45;;;1.35;;
85102;SDS011;75452;44.106;3.074;2024-02-15T13:34:26;1.70;;;1.60;;
85102;SDS011;75452;44.106;3.074;2024-02-15T13:36:51;2.47;;;1.85;;
85102;SDS011;75452;44.106;3.074;2024-02-15T13:39:17;3.97;;;1.77;;
85102;SDS011;75452;44.106;3.074;2024-02-15T13:41:46;1.60;;;1.50;;
85102;SDS011;75452;44.106;3.074;2024-02-15T13:44:12;1.60;;;1.50;;
85102;SDS011;75452;44.106;3.074;2024-02-15T13:46:39;1.60;;;1.50;;
85102;SDS011;75452;44.106;3.074;2024-02-15T13:49:05;2.03;;;1.70;;
85102;SDS011;75452;44.106;3.074;2024-02-15T13:51:30;1.80;;;1.70;;
85102;SDS011;75452;44.106;3.074;2024-02-15T13:53:56;1.63;;;1.52;;
85102;SDS011;75452;44.106;3.074;2024-02-15T13:56:21;4.78;;;1.40;;
85102;SDS011;75452;44.106;3.074;2024-02-15T13:58:47;2.00;;;1.70;;
85102;SDS011;75452;44.106;3.074;2024-02-15T14:01:12;1.48;;;1.35;;
85102;SDS011;75452;44.106;3.074;2024-02-15T14:03:39;1.40;;;1.30;;
85102;SDS011;75452;44.106;3.074;2024-02-15T14:06:06;2.08;;;1.67;;
85102;SDS011;75452;44.106;3.074;2024-02-15T14:08:32;2.38;;;1.60;;
85102;SDS011;75452;44.106;3.074;2024-02-15T14:10:57;1.30;;;1.20;;
85102;SDS011;75452;44.106;3.074;2024-02-15T14:13:22;3.38;;;1.40;;
85102;SDS011;75452;44.106;3.074;2024-02-15T14:15:48;1.63;;;1.52;;
85102;SDS011;75452;44.106;3.074;2024-02-15T14:18:13;1.65;;;1.55;;
85102;SDS011;75452;44.106;3.074;2024-02-15T14:20:39;2.85;;;1.50;;
85102;SDS011;75452;44.106;3.074;2024-02-15T14:23:07;1.73;;;1.48;;
85102;SDS011;75452;44.106;3.074;2024-02-15T14:25:38;1.50;;;1.40;;
85102;SDS011;75452;44.106;3.074;2024-02-15T14:28:04;1.60;;;1.50;;
85102;SDS011;75452;44.106;3.074;2024-02-15T14:30:32;1.58;;;1.48;;
85102;SDS011;75452;44.106;3.074;2024-02-15T14:33:16;1.35;;;1.25;;
85102;SDS011;75452;44.106;3.074;2024-02-15T14:35:44;1.85;;;1.30;;
85102;SDS011;75452;44.106;3.074;2024-02-15T14:38:10;1.23;;;1.13;;
85102;SDS011;75452;44.106;3.074;2024-02-15T14:40:40;1.30;;;1.20;;
85102;SDS011;75452;44.106;3.074;2024-02-15T14:43:08;2.22;;;1.52;;
85102;SDS011;75452;44.106;3.074;2024-02-15T14:45:34;1.70;;;1.60;;
85102;SDS011;75452;44.106;3.074;2024-02-15T14:48:01;1.30;;;1.20;;
85102;SDS011;75452;44.106;3.074;2024-02-15T14:50:28;2.80;;;1.50;;
85102;SDS011;75452;44.106;3.074;2024-02-15T14:52:54;1.15;;;1.05;;
85102;SDS011;75452;44.106;3.074;2024-02-15T14:55:20;1.42;;;1.33;;
85102;SDS011;75452;44.106;3.074;2024-02-15T14:57:45;1.38;;;1.27;;
85102;SDS011;75452;44.106;3.074;2024-02-15T15:00:11;1.10;;;1.10;;
85102;SDS011;75452;44.106;3.074;2024-02-15T15:02:38;1.15;;;1.15;;
85102;SDS011;75452;44.106;3.074;2024-02-15T15:05:04;1.30;;;1.20;;
85102;SDS011;75452;44.106;3.074;2024-02-15T15:07:48;1.52;;;1.42;;
85102;SDS011;75452;44.106;3.074;2024-02-15T15:10:32;1.70;;;1.52;;
85102;SDS011;75452;44.106;3.074;2024-02-15T15:13:16;2.85;;;1.50;;